sensor_id;sensor_type;location;lat;lon;timestamp;temperature;humidity
61201;DHT22;47065;52.898;6.992;2022-07-06T00:01:46;13.00;99.90
61201;DHT22;47065;52.898;6.992;2022-07-06T00:04:12;13.00;99.90
61201;DHT22;47065;52.898;6.992;2022-07-06T00:06:38;13.00;99.90
61201;DHT22;47065;52.898;6.992;2022-07-06T00:09:04;13.00;99.90
61201;DHT22;47065;52.898;6.992;2022-07-06T00:11:30;13.00;99.90
61201;DHT22;47065;52.898;6.992;2022-07-06T00:13:56;13.00;99.90
61201;DHT22;47065;52.898;6.992;2022-07-06T00:16:24;13.10;99.90
61201;DHT22;47065;52.898;6.992;2022-07-06T00:18:50;13.10;99.90
61201;DHT22;47065;52.898;6.992;2022-07-06T00:21:16;13.10;99.90
61201;DHT22;47065;52.898;6.992;2022-07-06T00:23:42;13.10;99.90
61201;DHT22;47065;52.898;6.992;2022-07-06T00:26:08;13.10;99.90
61201;DHT22;47065;52.898;6.992;2022-07-06T00:28:34;13.10;99.90
61201;DHT22;47065;52.898;6.992;2022-07-06T00:30:59;13.10;99.90
61201;DHT22;47065;52.898;6.992;2022-07-06T00:33:25;13.10;99.90
61201;DHT22;47065;52.898;6.992;2022-07-06T00:35:51;13.10;99.90
61201;DHT22;47065;52.898;6.992;2022-07-06T00:38:16;13.10;99.90
61201;DHT22;47065;52.898;6.992;2022-07-06T00:40:42;13.10;99.90
61201;DHT22;47065;52.898;6.992;2022-07-06T00:43:08;13.10;99.90
61201;DHT22;47065;52.898;6.992;2022-07-06T00:45:33;13.10;99.90
61201;DHT22;47065;52.898;6.992;2022-07-06T00:47:59;13.10;99.90
61201;DHT22;47065;52.898;6.992;2022-07-06T00:50:25;13.10;99.90
61201;DHT22;47065;52.898;6.992;2022-07-06T00:52:55;13.20;99.90
61201;DHT22;47065;52.898;6.992;2022-07-06T00:55:23;13.20;99.90
61201;DHT22;47065;52.898;6.992;2022-07-06T00:57:49;13.30;99.90
61201;DHT22;47065;52.898;6.992;2022-07-06T01:00:17;13.30;99.90
61201;DHT22;47065;52.898;6.992;2022-07-06T01:02:43;13.30;99.90
61201;DHT22;47065;52.898;6.992;2022-07-06T01:05:10;13.30;99.90
61201;DHT22;47065;52.898;6.992;2022-07-06T01:07:37;13.30;99.90
61201;DHT22;47065;52.898;6.992;2022-07-06T01:10:04;13.30;99.90
61201;DHT22;47065;52.898;6.992;2022-07-06T01:12:31;13.30;99.90
61201;DHT22;47065;52.898;6.992;2022-07-06T01:14:57;13.30;99.90
61201;DHT22;47065;52.898;6.992;2022-07-06T01:17:23;13.30;99.90
61201;DHT22;47065;52.898;6.992;2022-07-06T01:19:49;13.40;99.90
61201;DHT22;47065;52.898;6.992;2022-07-06T01:22:15;13.40;99.90
61201;DHT22;47065;52.898;6.992;2022-07-06T01:24:41;13.40;99.90
61201;DHT22;47065;52.898;6.992;2022-07-06T01:27:07;13.40;99.90
61201;DHT22;47065;52.898;6.992;2022-07-06T01:29:35;13.40;99.90
61201;DHT22;47065;52.898;6.992;2022-07-06T01:32:01;13.40;99.90
61201;DHT22;47065;52.898;6.992;2022-07-06T01:34:27;13.40;99.90
61201;DHT22;47065;52.898;6.992;2022-07-06T01:36:53;13.40;99.90
61201;DHT22;47065;52.898;6.992;2022-07-06T01:39:20;13.40;99.90
61201;DHT22;47065;52.898;6.992;2022-07-06T01:41:45;13.40;99.90
61201;DHT22;47065;52.898;6.992;2022-07-06T01:44:11;13.40;99.90
61201;DHT22;47065;52.898;6.992;2022-07-06T01:46:37;13.40;99.90
61201;DHT22;47065;52.898;6.992;2022-07-06T01:49:03;13.40;99.90
61201;DHT22;47065;52.898;6.992;2022-07-06T01:51:29;13.40;99.90
61201;DHT22;47065;52.898;6.992;2022-07-06T01:53:55;13.40;99.90
61201;DHT22;47065;52.898;6.992;2022-07-06T01:56:21;13.40;99.90
61201;DHT22;47065;52.898;6.992;2022-07-06T01:58:47;13.40;99.90
61201;DHT22;47065;52.898;6.992;2022-07-06T02:01:15;13.40;99.90
61201;DHT22;47065;52.898;6.992;2022-07-06T02:03:42;13.40;99.90
61201;DHT22;47065;52.898;6.992;2022-07-06T02:06:08;13.40;99.90
61201;DHT22;47065;52.898;6.992;2022-07-06T02:08:34;13.40;99.90
61201;DHT22;47065;52.898;6.992;2022-07-06T02:11:01;13.30;99.90
61201;DHT22;47065;52.898;6.992;2022-07-06T02:13:27;13.30;99.90
61201;DHT22;47065;52.898;6.992;2022-07-06T02:15:52;13.30;99.90
61201;DHT22;47065;52.898;6.992;2022-07-06T02:18:18;13.20;99.90
61201;DHT22;47065;52.898;6.992;2022-07-06T02:20:44;13.20;99.90
61201;DHT22;47065;52.898;6.992;2022-07-06T02:23:09;13.20;99.90
61201;DHT22;47065;52.898;6.992;2022-07-06T02:25:35;13.20;99.90
61201;DHT22;47065;52.898;6.992;2022-07-06T02:28:00;13.20;99.90
61201;DHT22;47065;52.898;6.992;2022-07-06T02:30:26;13.20;99.90
61201;DHT22;47065;52.898;6.992;2022-07-06T02:32:52;13.10;99.90
61201;DHT22;47065;52.898;6.992;2022-07-06T02:35:17;13.10;99.90
61201;DHT22;47065;52.898;6.992;2022-07-06T02:37:43;13.10;99.90
61201;DHT22;47065;52.898;6.992;2022-07-06T02:40:09;13.10;99.90
61201;DHT22;47065;52.898;6.992;2022-07-06T02:42:35;13.10;99.90
61201;DHT22;47065;52.898;6.992;2022-07-06T02:45:01;13.10;99.90
61201;DHT22;47065;52.898;6.992;2022-07-06T02:47:27;13.10;99.90
61201;DHT22;47065;52.898;6.992;2022-07-06T02:49:53;13.10;99.90
61201;DHT22;47065;52.898;6.992;2022-07-06T02:52:19;13.10;99.90
61201;DHT22;47065;52.898;6.992;2022-07-06T02:54:45;13.10;99.90
61201;DHT22;47065;52.898;6.992;2022-07-06T02:57:10;13.10;99.90
61201;DHT22;47065;52.898;6.992;2022-07-06T02:59:36;13.10;99.90
61201;DHT22;47065;52.898;6.992;2022-07-06T03:02:05;13.10;99.90
61201;DHT22;47065;52.898;6.992;2022-07-06T03:04:31;13.10;99.90
61201;DHT22;47065;52.898;6.992;2022-07-06T03:06:57;13.10;99.90
61201;DHT22;47065;52.898;6.992;2022-07-06T03:09:23;13.10;99.90
61201;DHT22;47065;52.898;6.992;2022-07-06T03:11:48;13.10;99.90
61201;DHT22;47065;52.898;6.992;2022-07-06T03:14:14;13.10;99.90
61201;DHT22;47065;52.898;6.992;2022-07-06T03:16:39;13.10;99.90
61201;DHT22;47065;52.898;6.992;2022-07-06T03:19:05;13.10;99.90
61201;DHT22;47065;52.898;6.992;2022-07-06T03:21:31;13.10;99.90
61201;DHT22;47065;52.898;6.992;2022-07-06T03:23:56;13.10;99.90
61201;DHT22;47065;52.898;6.992;2022-07-06T03:26:22;13.10;99.90
61201;DHT22;47065;52.898;6.992;2022-07-06T03:28:47;13.10;99.90
61201;DHT22;47065;52.898;6.992;2022-07-06T03:31:13;13.10;99.90
61201;DHT22;47065;52.898;6.992;2022-07-06T03:33:39;13.10;99.90
61201;DHT22;47065;52.898;6.992;2022-07-06T03:36:04;13.10;99.90
61201;DHT22;47065;52.898;6.992;2022-07-06T03:38:30;13.10;99.90
61201;DHT22;47065;52.898;6.992;2022-07-06T03:40:56;13.20;99.90
61201;DHT22;47065;52.898;6.992;2022-07-06T03:43:22;13.20;99.90
61201;DHT22;47065;52.898;6.992;2022-07-06T03:45:47;13.20;99.90
61201;DHT22;47065;52.898;6.992;2022-07-06T03:48:13;13.20;99.90
61201;DHT22;47065;52.898;6.992;2022-07-06T03:50:39;13.20;99.90
61201;DHT22;47065;52.898;6.992;2022-07-06T03:53:04;13.30;99.90
61201;DHT22;47065;52.898;6.992;2022-07-06T03:55:30;13.30;99.90
61201;DHT22;47065;52.898;6.992;2022-07-06T03:57:55;13.30;99.90
61201;DHT22;47065;52.898;6.992;2022-07-06T04:00:21;13.30;99.90
61201;DHT22;47065;52.898;6.992;2022-07-06T04:02:47;13.30;99.90
61201;DHT22;47065;52.898;6.992;2022-07-06T04:05:12;13.30;99.90
61201;DHT22;47065;52.898;6.992;2022-07-06T04:07:38;13.30;99.90
61201;DHT22;47065;52.898;6.992;2022-07-06T04:10:05;13.30;99.90
61201;DHT22;47065;52.898;6.992;2022-07-06T04:12:31;13.40;99.90
61201;DHT22;47065;52.898;6.992;2022-07-06T04:14:57;13.40;99.90
61201;DHT22;47065;52.898;6.992;2022-07-06T04:17:23;13.40;99.90
61201;DHT22;47065;52.898;6.992;2022-07-06T04:20:08;13.40;99.90
61201;DHT22;47065;52.898;6.992;2022-07-06T04:22:38;13.40;99.90
61201;DHT22;47065;52.898;6.992;2022-07-06T04:25:04;13.40;99.90
61201;DHT22;47065;52.898;6.992;2022-07-06T04:27:30;13.40;99.90
61201;DHT22;47065;52.898;6.992;2022-07-06T04:29:56;13.40;99.90
61201;DHT22;47065;52.898;6.992;2022-07-06T04:32:21;13.40;99.90
61201;DHT22;47065;52.898;6.992;2022-07-06T04:34:47;13.40;99.90
61201;DHT22;47065;52.898;6.992;2022-07-06T04:37:12;13.40;99.90
61201;DHT22;47065;52.898;6.992;2022-07-06T04:39:38;13.40;99.90
61201;DHT22;47065;52.898;6.992;2022-07-06T04:42:04;13.40;99.90
61201;DHT22;47065;52.898;6.992;2022-07-06T04:44:29;13.40;99.90
61201;DHT22;47065;52.898;6.992;2022-07-06T04:46:55;13.40;99.90
61201;DHT22;47065;52.898;6.992;2022-07-06T04:49:20;13.40;99.90
61201;DHT22;47065;52.898;6.992;2022-07-06T04:51:46;13.40;99.90
61201;DHT22;47065;52.898;6.992;2022-07-06T04:54:11;13.40;99.90
61201;DHT22;47065;52.898;6.992;2022-07-06T04:56:37;13.40;99.90
61201;DHT22;47065;52.898;6.992;2022-07-06T04:59:03;13.40;99.90
61201;DHT22;47065;52.898;6.992;2022-07-06T05:01:28;13.40;99.90
61201;DHT22;47065;52.898;6.992;2022-07-06T05:03:54;13.40;99.90
61201;DHT22;47065;52.898;6.992;2022-07-06T05:06:19;13.50;99.90
61201;DHT22;47065;52.898;6.992;2022-07-06T05:08:46;13.40;99.90
61201;DHT22;47065;52.898;6.992;2022-07-06T05:11:11;13.50;99.90
61201;DHT22;47065;52.898;6.992;2022-07-06T05:13:37;13.60;99.90
61201;DHT22;47065;52.898;6.992;2022-07-06T05:16:03;13.60;99.90
61201;DHT22;47065;52.898;6.992;2022-07-06T05:18:29;13.60;99.90
61201;DHT22;47065;52.898;6.992;2022-07-06T05:20:55;13.70;99.90
61201;DHT22;47065;52.898;6.992;2022-07-06T05:23:21;13.70;99.90
61201;DHT22;47065;52.898;6.992;2022-07-06T05:25:47;13.80;99.90
61201;DHT22;47065;52.898;6.992;2022-07-06T05:28:12;13.80;99.90
61201;DHT22;47065;52.898;6.992;2022-07-06T05:30:38;13.90;99.90
61201;DHT22;47065;52.898;6.992;2022-07-06T05:33:03;13.90;99.90
61201;DHT22;47065;52.898;6.992;2022-07-06T05:35:29;13.90;99.90
61201;DHT22;47065;52.898;6.992;2022-07-06T05:37:55;14.00;99.90
61201;DHT22;47065;52.898;6.992;2022-07-06T05:40:20;14.10;99.90
61201;DHT22;47065;52.898;6.992;2022-07-06T05:42:46;14.20;99.90
61201;DHT22;47065;52.898;6.992;2022-07-06T05:45:12;14.30;99.90
61201;DHT22;47065;52.898;6.992;2022-07-06T05:47:37;14.40;99.90
61201;DHT22;47065;52.898;6.992;2022-07-06T05:50:22;14.60;99.90
61201;DHT22;47065;52.898;6.992;2022-07-06T05:53:03;14.70;99.90
61201;DHT22;47065;52.898;6.992;2022-07-06T05:55:29;14.70;99.90
61201;DHT22;47065;52.898;6.992;2022-07-06T05:57:54;14.80;99.90
61201;DHT22;47065;52.898;6.992;2022-07-06T06:00:25;14.80;99.90
61201;DHT22;47065;52.898;6.992;2022-07-06T06:02:51;14.90;99.90
61201;DHT22;47065;52.898;6.992;2022-07-06T06:05:18;14.90;99.90
61201;DHT22;47065;52.898;6.992;2022-07-06T06:07:44;14.90;99.90
61201;DHT22;47065;52.898;6.992;2022-07-06T06:10:13;15.00;99.90
61201;DHT22;47065;52.898;6.992;2022-07-06T06:12:39;15.00;99.90
61201;DHT22;47065;52.898;6.992;2022-07-06T06:15:06;15.00;99.90
61201;DHT22;47065;52.898;6.992;2022-07-06T06:17:32;15.10;99.90
61201;DHT22;47065;52.898;6.992;2022-07-06T06:19:58;15.10;99.90
61201;DHT22;47065;52.898;6.992;2022-07-06T06:22:24;15.10;99.90
61201;DHT22;47065;52.898;6.992;2022-07-06T06:24:50;15.10;99.90
61201;DHT22;47065;52.898;6.992;2022-07-06T06:27:16;15.20;99.90
61201;DHT22;47065;52.898;6.992;2022-07-06T06:29:42;15.20;99.90
61201;DHT22;47065;52.898;6.992;2022-07-06T06:32:12;15.30;99.90
61201;DHT22;47065;52.898;6.992;2022-07-06T06:34:39;15.30;99.90
61201;DHT22;47065;52.898;6.992;2022-07-06T06:37:05;15.40;99.90
61201;DHT22;47065;52.898;6.992;2022-07-06T06:39:31;15.50;99.90
61201;DHT22;47065;52.898;6.992;2022-07-06T06:41:57;15.50;99.90
61201;DHT22;47065;52.898;6.992;2022-07-06T06:44:22;15.50;99.90
61201;DHT22;47065;52.898;6.992;2022-07-06T06:46:49;15.50;99.90
61201;DHT22;47065;52.898;6.992;2022-07-06T06:49:15;15.50;99.90
61201;DHT22;47065;52.898;6.992;2022-07-06T06:51:41;15.50;99.90
61201;DHT22;47065;52.898;6.992;2022-07-06T06:54:07;15.50;99.90
61201;DHT22;47065;52.898;6.992;2022-07-06T06:56:33;15.50;99.90
61201;DHT22;47065;52.898;6.992;2022-07-06T06:58:58;15.60;99.90
61201;DHT22;47065;52.898;6.992;2022-07-06T07:01:24;15.60;99.90
61201;DHT22;47065;52.898;6.992;2022-07-06T07:03:50;15.60;99.90
61201;DHT22;47065;52.898;6.992;2022-07-06T07:06:16;15.60;99.90
61201;DHT22;47065;52.898;6.992;2022-07-06T07:08:42;15.70;99.90
61201;DHT22;47065;52.898;6.992;2022-07-06T07:11:07;15.80;99.90
61201;DHT22;47065;52.898;6.992;2022-07-06T07:13:33;15.90;99.90
61201;DHT22;47065;52.898;6.992;2022-07-06T07:15:59;16.00;99.90
61201;DHT22;47065;52.898;6.992;2022-07-06T07:18:24;16.10;99.90
61201;DHT22;47065;52.898;6.992;2022-07-06T07:20:50;16.10;99.90
61201;DHT22;47065;52.898;6.992;2022-07-06T07:23:16;16.20;99.90
61201;DHT22;47065;52.898;6.992;2022-07-06T07:25:41;16.20;99.90
61201;DHT22;47065;52.898;6.992;2022-07-06T07:28:07;16.20;99.90
61201;DHT22;47065;52.898;6.992;2022-07-06T07:30:33;16.30;99.90
61201;DHT22;47065;52.898;6.992;2022-07-06T07:32:58;16.30;99.90
61201;DHT22;47065;52.898;6.992;2022-07-06T07:35:26;16.30;99.90
61201;DHT22;47065;52.898;6.992;2022-07-06T07:37:52;16.30;99.90
61201;DHT22;47065;52.898;6.992;2022-07-06T07:40:17;16.30;99.90
61201;DHT22;47065;52.898;6.992;2022-07-06T07:42:43;16.30;99.90
61201;DHT22;47065;52.898;6.992;2022-07-06T07:45:10;16.20;99.90
61201;DHT22;47065;52.898;6.992;2022-07-06T07:47:36;16.00;99.90
61201;DHT22;47065;52.898;6.992;2022-07-06T07:50:02;15.90;99.90
61201;DHT22;47065;52.898;6.992;2022-07-06T07:52:27;15.70;99.90
61201;DHT22;47065;52.898;6.992;2022-07-06T07:54:53;15.60;99.90
61201;DHT22;47065;52.898;6.992;2022-07-06T07:57:19;15.50;99.90
61201;DHT22;47065;52.898;6.992;2022-07-06T07:59:44;15.50;99.90
61201;DHT22;47065;52.898;6.992;2022-07-06T08:02:11;15.60;99.90
61201;DHT22;47065;52.898;6.992;2022-07-06T08:04:37;15.70;99.90
61201;DHT22;47065;52.898;6.992;2022-07-06T08:07:03;15.80;99.90
61201;DHT22;47065;52.898;6.992;2022-07-06T08:09:28;15.90;99.90
61201;DHT22;47065;52.898;6.992;2022-07-06T08:11:54;16.00;99.90
61201;DHT22;47065;52.898;6.992;2022-07-06T08:14:20;16.10;99.90
61201;DHT22;47065;52.898;6.992;2022-07-06T08:16:45;16.30;99.90
61201;DHT22;47065;52.898;6.992;2022-07-06T08:19:11;16.80;99.90
61201;DHT22;47065;52.898;6.992;2022-07-06T08:21:40;17.70;99.90
61201;DHT22;47065;52.898;6.992;2022-07-06T08:24:06;18.50;99.90
61201;DHT22;47065;52.898;6.992;2022-07-06T08:26:32;19.00;99.90
61201;DHT22;47065;52.898;6.992;2022-07-06T08:28:57;19.20;99.90
61201;DHT22;47065;52.898;6.992;2022-07-06T08:31:23;19.60;99.90
61201;DHT22;47065;52.898;6.992;2022-07-06T08:33:49;19.60;99.90
61201;DHT22;47065;52.898;6.992;2022-07-06T08:36:14;19.50;99.90
61201;DHT22;47065;52.898;6.992;2022-07-06T08:38:40;19.50;99.90
61201;DHT22;47065;52.898;6.992;2022-07-06T08:41:06;19.50;99.90
61201;DHT22;47065;52.898;6.992;2022-07-06T08:43:33;19.60;99.90
61201;DHT22;47065;52.898;6.992;2022-07-06T08:46:01;19.60;99.90
61201;DHT22;47065;52.898;6.992;2022-07-06T08:48:27;19.60;99.90
61201;DHT22;47065;52.898;6.992;2022-07-06T08:50:54;19.50;99.90
61201;DHT22;47065;52.898;6.992;2022-07-06T08:53:20;19.60;99.90
61201;DHT22;47065;52.898;6.992;2022-07-06T08:55:48;19.90;99.90
61201;DHT22;47065;52.898;6.992;2022-07-06T08:58:14;20.20;99.90
61201;DHT22;47065;52.898;6.992;2022-07-06T09:00:41;20.30;99.90
61201;DHT22;47065;52.898;6.992;2022-07-06T09:03:07;20.30;98.90
61201;DHT22;47065;52.898;6.992;2022-07-06T09:05:36;20.40;99.40
61201;DHT22;47065;52.898;6.992;2022-07-06T09:08:02;20.30;99.00
61201;DHT22;47065;52.898;6.992;2022-07-06T09:10:28;20.30;98.10
61201;DHT22;47065;52.898;6.992;2022-07-06T09:13:02;20.60;98.00
61201;DHT22;47065;52.898;6.992;2022-07-06T09:15:28;20.80;96.60
61201;DHT22;47065;52.898;6.992;2022-07-06T09:17:56;20.70;95.00
61201;DHT22;47065;52.898;6.992;2022-07-06T09:20:22;20.40;97.40
61201;DHT22;47065;52.898;6.992;2022-07-06T09:22:48;20.10;99.00
61201;DHT22;47065;52.898;6.992;2022-07-06T09:25:15;19.90;99.10
61201;DHT22;47065;52.898;6.992;2022-07-06T09:27:46;19.80;99.00
61201;DHT22;47065;52.898;6.992;2022-07-06T09:30:24;19.60;99.00
61201;DHT22;47065;52.898;6.992;2022-07-06T09:32:53;19.20;99.90
61201;DHT22;47065;52.898;6.992;2022-07-06T09:35:21;19.00;99.00
61201;DHT22;47065;52.898;6.992;2022-07-06T09:37:47;19.20;99.90
61201;DHT22;47065;52.898;6.992;2022-07-06T09:40:17;19.50;99.90
61201;DHT22;47065;52.898;6.992;2022-07-06T09:42:43;20.00;99.90
61201;DHT22;47065;52.898;6.992;2022-07-06T09:45:09;20.70;98.30
61201;DHT22;47065;52.898;6.992;2022-07-06T09:47:35;21.30;97.70
61201;DHT22;47065;52.898;6.992;2022-07-06T09:50:05;21.40;94.70
61201;DHT22;47065;52.898;6.992;2022-07-06T09:52:34;21.30;95.10
61201;DHT22;47065;52.898;6.992;2022-07-06T09:55:00;21.20;95.10
61201;DHT22;47065;52.898;6.992;2022-07-06T09:57:26;21.10;95.60
61201;DHT22;47065;52.898;6.992;2022-07-06T09:59:51;21.20;95.70
61201;DHT22;47065;52.898;6.992;2022-07-06T10:02:19;21.30;95.10
61201;DHT22;47065;52.898;6.992;2022-07-06T10:04:46;21.60;88.40
61201;DHT22;47065;52.898;6.992;2022-07-06T10:07:13;22.30;92.30
61201;DHT22;47065;52.898;6.992;2022-07-06T10:09:40;23.00;89.80
61201;DHT22;47065;52.898;6.992;2022-07-06T10:12:09;23.40;78.80
61201;DHT22;47065;52.898;6.992;2022-07-06T10:14:37;23.60;80.90
61201;DHT22;47065;52.898;6.992;2022-07-06T10:17:04;23.80;64.40
61201;DHT22;47065;52.898;6.992;2022-07-06T10:19:31;23.90;72.40
61201;DHT22;47065;52.898;6.992;2022-07-06T10:22:02;23.90;76.60
61201;DHT22;47065;52.898;6.992;2022-07-06T10:24:29;23.80;72.30
61201;DHT22;47065;52.898;6.992;2022-07-06T10:26:55;23.50;71.90
61201;DHT22;47065;52.898;6.992;2022-07-06T10:29:21;23.10;72.80
61201;DHT22;47065;52.898;6.992;2022-07-06T10:31:48;22.80;72.70
61201;DHT22;47065;52.898;6.992;2022-07-06T10:34:15;22.40;79.00
61201;DHT22;47065;52.898;6.992;2022-07-06T10:36:43;22.10;86.40
61201;DHT22;47065;52.898;6.992;2022-07-06T10:39:10;21.80;86.70
61201;DHT22;47065;52.898;6.992;2022-07-06T10:41:55;21.50;88.40
61201;DHT22;47065;52.898;6.992;2022-07-06T10:44:27;21.40;91.30
61201;DHT22;47065;52.898;6.992;2022-07-06T10:46:56;21.30;91.60
61201;DHT22;47065;52.898;6.992;2022-07-06T10:49:24;21.20;93.20
61201;DHT22;47065;52.898;6.992;2022-07-06T10:51:50;21.10;93.80
61201;DHT22;47065;52.898;6.992;2022-07-06T10:54:18;21.00;93.90
61201;DHT22;47065;52.898;6.992;2022-07-06T10:56:46;20.90;94.10
61201;DHT22;47065;52.898;6.992;2022-07-06T10:59:17;20.90;95.30
61201;DHT22;47065;52.898;6.992;2022-07-06T11:02:17;21.00;96.70
61201;DHT22;47065;52.898;6.992;2022-07-06T11:04:47;21.10;96.30
61201;DHT22;47065;52.898;6.992;2022-07-06T11:07:18;21.30;95.40
61201;DHT22;47065;52.898;6.992;2022-07-06T11:09:57;21.50;94.90
61201;DHT22;47065;52.898;6.992;2022-07-06T11:12:23;21.60;92.40
61201;DHT22;47065;52.898;6.992;2022-07-06T11:14:50;21.80;92.00
61201;DHT22;47065;52.898;6.992;2022-07-06T11:17:17;21.80;91.20
61201;DHT22;47065;52.898;6.992;2022-07-06T11:19:56;21.90;90.50
61201;DHT22;47065;52.898;6.992;2022-07-06T11:22:22;22.10;91.70
61201;DHT22;47065;52.898;6.992;2022-07-06T11:24:50;22.30;90.90
61201;DHT22;47065;52.898;6.992;2022-07-06T11:27:17;22.40;90.60
61201;DHT22;47065;52.898;6.992;2022-07-06T11:29:43;22.40;87.90
61201;DHT22;47065;52.898;6.992;2022-07-06T11:32:11;22.40;86.10
61201;DHT22;47065;52.898;6.992;2022-07-06T11:34:42;22.40;85.90
61201;DHT22;47065;52.898;6.992;2022-07-06T11:37:15;22.20;85.10
61201;DHT22;47065;52.898;6.992;2022-07-06T11:39:42;22.10;87.30
61201;DHT22;47065;52.898;6.992;2022-07-06T11:42:10;22.20;83.70
61201;DHT22;47065;52.898;6.992;2022-07-06T11:44:37;22.20;84.90
61201;DHT22;47065;52.898;6.992;2022-07-06T11:47:04;22.20;82.20
61201;DHT22;47065;52.898;6.992;2022-07-06T11:49:31;22.20;83.10
61201;DHT22;47065;52.898;6.992;2022-07-06T11:51:57;22.20;84.30
61201;DHT22;47065;52.898;6.992;2022-07-06T11:54:23;22.10;83.50
61201;DHT22;47065;52.898;6.992;2022-07-06T11:56:57;22.10;84.50
61201;DHT22;47065;52.898;6.992;2022-07-06T11:59:28;21.90;79.20
61201;DHT22;47065;52.898;6.992;2022-07-06T12:02:10;21.80;79.10
61201;DHT22;47065;52.898;6.992;2022-07-06T12:04:39;21.60;80.40
61201;DHT22;47065;52.898;6.992;2022-07-06T12:07:07;21.40;83.00
61201;DHT22;47065;52.898;6.992;2022-07-06T12:09:35;21.40;88.50
61201;DHT22;47065;52.898;6.992;2022-07-06T12:12:01;21.40;91.10
61201;DHT22;47065;52.898;6.992;2022-07-06T12:14:29;21.50;91.20
61201;DHT22;47065;52.898;6.992;2022-07-06T12:16:54;21.80;92.00
61201;DHT22;47065;52.898;6.992;2022-07-06T12:19:23;22.00;77.70
61201;DHT22;47065;52.898;6.992;2022-07-06T12:21:50;22.50;70.30
61201;DHT22;47065;52.898;6.992;2022-07-06T12:24:21;23.00;64.70
61201;DHT22;47065;52.898;6.992;2022-07-06T12:26:48;23.20;68.00
61201;DHT22;47065;52.898;6.992;2022-07-06T12:29:14;23.30;62.20
61201;DHT22;47065;52.898;6.992;2022-07-06T12:31:44;23.30;60.30
61201;DHT22;47065;52.898;6.992;2022-07-06T12:34:17;23.30;59.70
61201;DHT22;47065;52.898;6.992;2022-07-06T12:36:48;23.10;58.40
61201;DHT22;47065;52.898;6.992;2022-07-06T12:39:15;23.00;60.80
61201;DHT22;47065;52.898;6.992;2022-07-06T12:41:47;22.70;63.00
61201;DHT22;47065;52.898;6.992;2022-07-06T12:44:13;22.40;65.90
61201;DHT22;47065;52.898;6.992;2022-07-06T12:46:40;22.00;68.70
61201;DHT22;47065;52.898;6.992;2022-07-06T12:49:23;21.90;70.10
61201;DHT22;47065;52.898;6.992;2022-07-06T12:52:02;21.80;72.50
61201;DHT22;47065;52.898;6.992;2022-07-06T12:54:40;21.80;78.40
61201;DHT22;47065;52.898;6.992;2022-07-06T12:57:19;21.90;74.10
61201;DHT22;47065;52.898;6.992;2022-07-06T12:59:55;21.80;80.00
61201;DHT22;47065;52.898;6.992;2022-07-06T13:02:34;21.90;87.50
61201;DHT22;47065;52.898;6.992;2022-07-06T13:05:15;22.20;84.60
61201;DHT22;47065;52.898;6.992;2022-07-06T13:07:48;22.40;69.50
61201;DHT22;47065;52.898;6.992;2022-07-06T13:10:14;22.30;64.50
61201;DHT22;47065;52.898;6.992;2022-07-06T13:12:41;22.30;67.40
61201;DHT22;47065;52.898;6.992;2022-07-06T13:15:08;22.20;64.80
61201;DHT22;47065;52.898;6.992;2022-07-06T13:17:34;22.30;71.10
61201;DHT22;47065;52.898;6.992;2022-07-06T13:20:00;22.30;77.10
61201;DHT22;47065;52.898;6.992;2022-07-06T13:22:26;22.50;62.50
61201;DHT22;47065;52.898;6.992;2022-07-06T13:24:51;22.70;69.70
61201;DHT22;47065;52.898;6.992;2022-07-06T13:27:17;22.80;69.80
61201;DHT22;47065;52.898;6.992;2022-07-06T13:29:43;23.00;61.80
61201;DHT22;47065;52.898;6.992;2022-07-06T13:32:08;23.10;58.50
61201;DHT22;47065;52.898;6.992;2022-07-06T13:34:34;23.10;60.80
61201;DHT22;47065;52.898;6.992;2022-07-06T13:37:04;23.00;61.00
61201;DHT22;47065;52.898;6.992;2022-07-06T13:39:29;22.90;59.20
61201;DHT22;47065;52.898;6.992;2022-07-06T13:41:55;22.70;60.80
61201;DHT22;47065;52.898;6.992;2022-07-06T13:44:21;22.60;62.70
61201;DHT22;47065;52.898;6.992;2022-07-06T13:46:47;22.50;64.40
61201;DHT22;47065;52.898;6.992;2022-07-06T13:49:12;22.40;66.50
61201;DHT22;47065;52.898;6.992;2022-07-06T13:51:38;22.50;66.10
61201;DHT22;47065;52.898;6.992;2022-07-06T13:54:04;22.50;66.60
61201;DHT22;47065;52.898;6.992;2022-07-06T13:56:30;22.40;64.50
61201;DHT22;47065;52.898;6.992;2022-07-06T13:58:56;22.30;64.70
61201;DHT22;47065;52.898;6.992;2022-07-06T14:01:22;22.30;65.70
61201;DHT22;47065;52.898;6.992;2022-07-06T14:03:47;22.30;67.00
61201;DHT22;47065;52.898;6.992;2022-07-06T14:06:14;22.30;60.00
61201;DHT22;47065;52.898;6.992;2022-07-06T14:08:40;22.40;62.10
61201;DHT22;47065;52.898;6.992;2022-07-06T14:11:07;22.60;65.50
61201;DHT22;47065;52.898;6.992;2022-07-06T14:13:33;22.60;66.80
61201;DHT22;47065;52.898;6.992;2022-07-06T14:16:00;22.40;66.50
61201;DHT22;47065;52.898;6.992;2022-07-06T14:18:25;22.30;67.30
61201;DHT22;47065;52.898;6.992;2022-07-06T14:20:53;22.10;66.70
61201;DHT22;47065;52.898;6.992;2022-07-06T14:23:19;22.10;63.90
61201;DHT22;47065;52.898;6.992;2022-07-06T14:25:46;22.10;64.30
61201;DHT22;47065;52.898;6.992;2022-07-06T14:28:12;22.00;63.80
61201;DHT22;47065;52.898;6.992;2022-07-06T14:30:42;21.70;66.70
61201;DHT22;47065;52.898;6.992;2022-07-06T14:33:10;21.40;70.10
61201;DHT22;47065;52.898;6.992;2022-07-06T14:35:38;21.20;79.30
61201;DHT22;47065;52.898;6.992;2022-07-06T14:38:05;21.20;84.10
61201;DHT22;47065;52.898;6.992;2022-07-06T14:40:32;21.20;77.00
61201;DHT22;47065;52.898;6.992;2022-07-06T14:42:58;21.20;75.30
61201;DHT22;47065;52.898;6.992;2022-07-06T14:45:24;21.10;76.40
61201;DHT22;47065;52.898;6.992;2022-07-06T14:47:51;20.90;71.30
61201;DHT22;47065;52.898;6.992;2022-07-06T14:50:16;20.70;74.60
61201;DHT22;47065;52.898;6.992;2022-07-06T14:52:42;20.50;78.20
61201;DHT22;47065;52.898;6.992;2022-07-06T14:55:08;20.40;80.70
61201;DHT22;47065;52.898;6.992;2022-07-06T14:57:33;20.30;82.70
61201;DHT22;47065;52.898;6.992;2022-07-06T14:59:59;20.20;84.30
61201;DHT22;47065;52.898;6.992;2022-07-06T15:02:25;20.00;84.30
61201;DHT22;47065;52.898;6.992;2022-07-06T15:04:50;19.90;85.30
61201;DHT22;47065;52.898;6.992;2022-07-06T15:07:16;19.80;86.40
61201;DHT22;47065;52.898;6.992;2022-07-06T15:09:42;19.70;87.50
61201;DHT22;47065;52.898;6.992;2022-07-06T15:12:08;19.60;86.30
61201;DHT22;47065;52.898;6.992;2022-07-06T15:14:34;19.50;85.70
61201;DHT22;47065;52.898;6.992;2022-07-06T15:17:00;19.50;86.20
61201;DHT22;47065;52.898;6.992;2022-07-06T15:19:26;19.40;88.40
61201;DHT22;47065;52.898;6.992;2022-07-06T15:21:53;19.40;91.30
61201;DHT22;47065;52.898;6.992;2022-07-06T15:24:19;19.40;90.90
61201;DHT22;47065;52.898;6.992;2022-07-06T15:26:44;19.30;91.40
61201;DHT22;47065;52.898;6.992;2022-07-06T15:29:10;19.30;91.30